sensor_id;sensor_type;location;lat;lon;timestamp;pressure;altitude;pressure_sealevel;temperature;humidity
72794;BME280;63436;26.334;50.194;2023-03-01T00:01:18;101585.90;;;27.99;16.27
72794;BME280;63436;26.334;50.194;2023-03-01T00:03:42;101591.54;;;28.59;15.78
72794;BME280;63436;26.334;50.194;2023-03-01T00:06:07;101595.42;;;28.48;15.73
72794;BME280;63436;26.334;50.194;2023-03-01T00:08:33;101601.81;;;27.66;16.14
72794;BME280;63436;26.334;50.194;2023-03-01T00:11:04;101605.40;;;28.13;15.81
72794;BME280;63436;26.334;50.194;2023-03-01T00:13:23;101597.33;;;28.34;15.96
72794;BME280;63436;26.334;50.194;2023-03-01T00:15:49;101601.28;;;27.92;15.86
72794;BME280;63436;26.334;50.194;2023-03-01T00:18:15;101597.86;;;28.20;15.65
72794;BME280;63436;26.334;50.194;2023-03-01T00:20:39;101597.05;;;28.18;15.65
72794;BME280;63436;26.334;50.194;2023-03-01T00:23:05;101598.02;;;28.01;15.85
72794;BME280;63436;26.334;50.194;2023-03-01T00:25:30;101597.76;;;27.14;16.35
72794;BME280;63436;26.334;50.194;2023-03-01T00:27:55;101597.45;;;27.37;16.31
72794;BME280;63436;26.334;50.194;2023-03-01T00:30:20;101598.49;;;27.12;16.67
72794;BME280;63436;26.334;50.194;2023-03-01T00:32:46;101605.03;;;27.93;16.33
72794;BME280;63436;26.334;50.194;2023-03-01T00:35:11;101607.60;;;27.70;16.74
72794;BME280;63436;26.334;50.194;2023-03-01T00:37:37;101609.70;;;27.43;17.27
72794;BME280;63436;26.334;50.194;2023-03-01T00:40:04;101611.75;;;27.24;17.67
72794;BME280;63436;26.334;50.194;2023-03-01T00:42:28;101612.19;;;27.04;17.82
72794;BME280;63436;26.334;50.194;2023-03-01T00:44:54;101612.49;;;27.07;18.01
72794;BME280;63436;26.334;50.194;2023-03-01T00:47:20;101612.45;;;26.60;18.35
72794;BME280;63436;26.334;50.194;2023-03-01T00:49:45;101608.98;;;26.55;18.78
72794;BME280;63436;26.334;50.194;2023-03-01T00:52:10;101597.82;;;27.35;18.36
72794;BME280;63436;26.334;50.194;2023-03-01T00:54:35;101593.65;;;27.31;18.48
72794;BME280;63436;26.334;50.194;2023-03-01T00:57:01;101594.53;;;27.21;18.21
72794;BME280;63436;26.334;50.194;2023-03-01T00:59:27;101601.84;;;27.31;18.08
72794;BME280;63436;26.334;50.194;2023-03-01T01:01:53;101600.83;;;27.49;18.12
72794;BME280;63436;26.334;50.194;2023-03-01T01:04:17;101600.12;;;27.28;18.32
72794;BME280;63436;26.334;50.194;2023-03-01T01:06:45;101603.68;;;26.72;18.72
72794;BME280;63436;26.334;50.194;2023-03-01T01:09:10;101598.20;;;27.41;18.09
72794;BME280;63436;26.334;50.194;2023-03-01T01:11:34;101600.18;;;26.12;18.62
72794;BME280;63436;26.334;50.194;2023-03-01T01:13:59;101591.39;;;27.08;17.97
72794;BME280;63436;26.334;50.194;2023-03-01T01:16:27;101590.59;;;26.65;17.99
72794;BME280;63436;26.334;50.194;2023-03-01T01:18:50;101594.47;;;26.49;17.91
72794;BME280;63436;26.334;50.194;2023-03-01T01:21:19;101597.15;;;26.30;17.86
72794;BME280;63436;26.334;50.194;2023-03-01T01:23:43;101604.62;;;26.04;18.08
72794;BME280;63436;26.334;50.194;2023-03-01T01:26:09;101604.69;;;26.44;17.81
72794;BME280;63436;26.334;50.194;2023-03-01T01:28:32;101596.26;;;27.07;17.28
72794;BME280;63436;26.334;50.194;2023-03-01T01:30:58;101603.13;;;26.33;17.68
72794;BME280;63436;26.334;50.194;2023-03-01T01:33:23;101607.51;;;25.78;17.85
72794;BME280;63436;26.334;50.194;2023-03-01T01:35:48;101609.53;;;26.23;17.58
72794;BME280;63436;26.334;50.194;2023-03-01T01:38:14;101615.16;;;25.86;17.89
72794;BME280;63436;26.334;50.194;2023-03-01T01:40:43;101621.26;;;25.68;18.04
72794;BME280;63436;26.334;50.194;2023-03-01T01:43:08;101628.74;;;25.60;17.98
72794;BME280;63436;26.334;50.194;2023-03-01T01:45:32;101628.14;;;25.44;18.44
72794;BME280;63436;26.334;50.194;2023-03-01T01:47:59;101634.46;;;25.17;18.50
72794;BME280;63436;26.334;50.194;2023-03-01T01:50:21;101635.97;;;25.60;18.18
72794;BME280;63436;26.334;50.194;2023-03-01T01:52:48;101639.03;;;26.25;17.85
72794;BME280;63436;26.334;50.194;2023-03-01T01:55:14;101638.38;;;25.51;18.34
72794;BME280;63436;26.334;50.194;2023-03-01T01:57:39;101638.76;;;25.59;18.42
72794;BME280;63436;26.334;50.194;2023-03-01T02:00:08;101640.59;;;25.90;18.35
72794;BME280;63436;26.334;50.194;2023-03-01T02:02:27;101647.68;;;25.44;18.71
72794;BME280;63436;26.334;50.194;2023-03-01T02:04:58;101654.87;;;25.30;18.78
72794;BME280;63436;26.334;50.194;2023-03-01T02:07:21;101657.34;;;25.19;19.05
72794;BME280;63436;26.334;50.194;2023-03-01T02:09:48;101656.11;;;25.39;19.00
72794;BME280;63436;26.334;50.194;2023-03-01T02:12:09;101654.98;;;25.97;18.67
72794;BME280;63436;26.334;50.194;2023-03-01T02:14:35;101659.59;;;26.14;18.69
72794;BME280;63436;26.334;50.194;2023-03-01T02:17:00;101667.26;;;26.23;18.63
72794;BME280;63436;26.334;50.194;2023-03-01T02:19:36;101669.86;;;26.43;18.59
72794;BME280;63436;26.334;50.194;2023-03-01T02:21:56;101666.38;;;26.23;18.75
72794;BME280;63436;26.334;50.194;2023-03-01T02:24:23;101663.43;;;25.73;19.17
72794;BME280;63436;26.334;50.194;2023-03-01T02:26:45;101666.86;;;25.00;19.98
72794;BME280;63436;26.334;50.194;2023-03-01T02:29:07;101671.06;;;25.61;19.30
72794;BME280;63436;26.334;50.194;2023-03-01T02:31:32;101678.07;;;25.13;19.96
72794;BME280;63436;26.334;50.194;2023-03-01T02:33:58;101682.96;;;24.75;20.30
72794;BME280;63436;26.334;50.194;2023-03-01T02:36:26;101685.21;;;25.06;20.16
72794;BME280;63436;26.334;50.194;2023-03-01T02:38:48;101693.53;;;25.32;19.91
72794;BME280;63436;26.334;50.194;2023-03-01T02:41:15;101696.91;;;25.15;20.00
72794;BME280;63436;26.334;50.194;2023-03-01T02:43:38;101699.01;;;25.30;19.99
72794;BME280;63436;26.334;50.194;2023-03-01T02:46:07;101702.87;;;24.89;20.40
72794;BME280;63436;26.334;50.194;2023-03-01T02:48:40;101711.25;;;25.38;20.41
72794;BME280;63436;26.334;50.194;2023-03-01T02:51:03;101717.91;;;25.26;20.14
72794;BME280;63436;26.334;50.194;2023-03-01T02:53:27;101723.68;;;25.88;19.89
72794;BME280;63436;26.334;50.194;2023-03-01T02:55:45;101727.83;;;25.43;20.08
72794;BME280;63436;26.334;50.194;2023-03-01T02:58:11;101733.06;;;26.59;19.30
72794;BME280;63436;26.334;50.194;2023-03-01T03:00:38;101746.45;;;25.02;20.07
72794;BME280;63436;26.334;50.194;2023-03-01T03:03:01;101750.61;;;25.74;19.65
72794;BME280;63436;26.334;50.194;2023-03-01T03:05:29;101757.91;;;25.34;19.86
72794;BME280;63436;26.334;50.194;2023-03-01T03:07:53;101755.01;;;25.59;19.61
72794;BME280;63436;26.334;50.194;2023-03-01T03:10:21;101755.65;;;25.87;19.37
72794;BME280;63436;26.334;50.194;2023-03-01T03:12:47;101754.54;;;25.77;19.49
72794;BME280;63436;26.334;50.194;2023-03-01T03:15:11;101760.77;;;24.64;20.05
72794;BME280;63436;26.334;50.194;2023-03-01T03:17:35;101762.00;;;25.94;19.32
72794;BME280;63436;26.334;50.194;2023-03-01T03:20:00;101763.42;;;25.72;19.62
72794;BME280;63436;26.334;50.194;2023-03-01T03:22:25;101761.25;;;25.51;19.60
72794;BME280;63436;26.334;50.194;2023-03-01T03:24:51;101762.30;;;25.88;19.40
72794;BME280;63436;26.334;50.194;2023-03-01T03:27:16;101768.45;;;26.03;18.92
72794;BME280;63436;26.334;50.194;2023-03-01T03:29:42;101777.31;;;25.63;19.59
72794;BME280;63436;26.334;50.194;2023-03-01T03:32:07;101782.30;;;25.52;19.61
72794;BME280;63436;26.334;50.194;2023-03-01T03:34:32;101790.59;;;25.73;19.71
72794;BME280;63436;26.334;50.194;2023-03-01T03:36:58;101797.01;;;25.25;20.07
72794;BME280;63436;26.334;50.194;2023-03-01T03:39:23;101797.63;;;25.36;20.13
72794;BME280;63436;26.334;50.194;2023-03-01T03:41:50;101802.37;;;25.67;20.11
72794;BME280;63436;26.334;50.194;2023-03-01T03:44:15;101807.30;;;25.85;19.88
72794;BME280;63436;26.334;50.194;2023-03-01T03:46:40;101814.85;;;25.71;19.90
72794;BME280;63436;26.334;50.194;2023-03-01T03:49:07;101817.59;;;26.06;19.80
72794;BME280;63436;26.334;50.194;2023-03-01T03:51:32;101821.77;;;26.07;19.93
72794;BME280;63436;26.334;50.194;2023-03-01T03:53:57;101831.26;;;25.99;19.94
72794;BME280;63436;26.334;50.194;2023-03-01T03:56:23;101833.74;;;26.79;19.43
72794;BME280;63436;26.334;50.194;2023-03-01T03:58:48;101840.60;;;26.83;19.37
72794;BME280;63436;26.334;50.194;2023-03-01T04:01:13;101846.88;;;26.35;19.65
72794;BME280;63436;26.334;50.194;2023-03-01T04:03:40;101851.71;;;26.57;19.48
72794;BME280;63436;26.334;50.194;2023-03-01T04:06:05;101850.81;;;26.25;19.95
72794;BME280;63436;26.334;50.194;2023-03-01T04:08:29;101853.17;;;26.20;19.89
72794;BME280;63436;26.334;50.194;2023-03-01T04:11:03;101862.79;;;26.07;20.29
72794;BME280;63436;26.334;50.194;2023-03-01T04:13:21;101872.44;;;26.86;19.76
72794;BME280;63436;26.334;50.194;2023-03-01T04:15:45;101880.64;;;26.96;19.87
72794;BME280;63436;26.334;50.194;2023-03-01T04:18:12;101890.59;;;26.15;19.98
72794;BME280;63436;26.334;50.194;2023-03-01T04:20:37;101898.29;;;26.15;20.19
72794;BME280;63436;26.334;50.194;2023-03-01T04:23:04;101900.48;;;26.08;20.51
72794;BME280;63436;26.334;50.194;2023-03-01T04:25:29;101901.26;;;26.95;19.97
72794;BME280;63436;26.334;50.194;2023-03-01T04:27:53;101907.75;;;26.64;20.23
72794;BME280;63436;26.334;50.194;2023-03-01T04:30:19;101908.34;;;27.47;19.54
72794;BME280;63436;26.334;50.194;2023-03-01T04:32:44;101910.45;;;26.46;20.34
72794;BME280;63436;26.334;50.194;2023-03-01T04:35:10;101911.74;;;26.53;20.19
72794;BME280;63436;26.334;50.194;2023-03-01T04:37:35;101922.31;;;26.38;20.42
72794;BME280;63436;26.334;50.194;2023-03-01T04:40:00;101930.20;;;26.33;20.50
72794;BME280;63436;26.334;50.194;2023-03-01T04:42:26;101939.83;;;26.03;21.09
72794;BME280;63436;26.334;50.194;2023-03-01T04:44:51;101939.90;;;27.01;20.50
72794;BME280;63436;26.334;50.194;2023-03-01T04:47:17;101946.44;;;28.14;19.63
72794;BME280;63436;26.334;50.194;2023-03-01T04:49:43;101952.55;;;27.86;19.80
72794;BME280;63436;26.334;50.194;2023-03-01T04:52:08;101958.73;;;27.82;19.68
72794;BME280;63436;26.334;50.194;2023-03-01T04:54:34;101966.69;;;27.79;19.87
72794;BME280;63436;26.334;50.194;2023-03-01T04:56:59;101978.01;;;27.29;20.11
72794;BME280;63436;26.334;50.194;2023-03-01T04:59:24;101983.10;;;27.71;20.10
72794;BME280;63436;26.334;50.194;2023-03-01T05:01:50;101991.63;;;27.84;19.85
72794;BME280;63436;26.334;50.194;2023-03-01T05:04:15;101995.80;;;27.33;20.19
72794;BME280;63436;26.334;50.194;2023-03-01T05:06:41;102003.60;;;26.70;20.61
72794;BME280;63436;26.334;50.194;2023-03-01T05:09:06;102001.54;;;28.19;19.86
72794;BME280;63436;26.334;50.194;2023-03-01T05:11:32;102002.15;;;27.93;19.81
72794;BME280;63436;26.334;50.194;2023-03-01T05:13:57;102002.24;;;28.89;19.07
72794;BME280;63436;26.334;50.194;2023-03-01T05:18:51;101996.19;;;27.70;19.44
72794;BME280;63436;26.334;50.194;2023-03-01T05:21:14;101991.56;;;28.66;19.05
72794;BME280;63436;26.334;50.194;2023-03-01T05:23:39;101988.11;;;29.48;18.29
72794;BME280;63436;26.334;50.194;2023-03-01T05:26:06;101993.59;;;29.34;17.93
72794;BME280;63436;26.334;50.194;2023-03-01T05:28:30;101996.66;;;28.58;18.72
72794;BME280;63436;26.334;50.194;2023-03-01T05:30:57;102000.82;;;29.87;18.03
72794;BME280;63436;26.334;50.194;2023-03-01T05:33:22;102003.37;;;29.45;18.38
72794;BME280;63436;26.334;50.194;2023-03-01T05:35:47;102004.73;;;28.92;18.29
72794;BME280;63436;26.334;50.194;2023-03-01T05:38:13;102005.46;;;29.02;18.37
72794;BME280;63436;26.334;50.194;2023-03-01T05:40:39;102004.42;;;29.16;18.09
72794;BME280;63436;26.334;50.194;2023-03-01T05:43:03;102003.93;;;29.08;17.89
72794;BME280;63436;26.334;50.194;2023-03-01T05:45:28;102005.49;;;29.52;17.66
72794;BME280;63436;26.334;50.194;2023-03-01T05:47:55;102002.77;;;30.05;17.22
72794;BME280;63436;26.334;50.194;2023-03-01T05:50:22;102004.47;;;30.12;17.08
72794;BME280;63436;26.334;50.194;2023-03-01T05:52:47;102004.99;;;30.13;16.82
72794;BME280;63436;26.334;50.194;2023-03-01T05:55:11;102007.47;;;29.79;16.84
72794;BME280;63436;26.334;50.194;2023-03-01T05:57:37;102006.93;;;28.73;17.51
72794;BME280;63436;26.334;50.194;2023-03-01T06:00:02;102002.55;;;28.82;17.66
72794;BME280;63436;26.334;50.194;2023-03-01T06:02:27;101999.17;;;29.25;17.37
72794;BME280;63436;26.334;50.194;2023-03-01T06:04:55;101997.56;;;30.02;16.87
72794;BME280;63436;26.334;50.194;2023-03-01T06:07:19;102004.42;;;27.93;18.07
72794;BME280;63436;26.334;50.194;2023-03-01T06:09:44;102001.19;;;28.58;18.06
72794;BME280;63436;26.334;50.194;2023-03-01T06:12:10;101989.41;;;29.93;17.20
72794;BME280;63436;26.334;50.194;2023-03-01T06:14:35;101982.48;;;30.17;16.55
72794;BME280;63436;26.334;50.194;2023-03-01T06:17:00;101978.16;;;29.61;16.66
72794;BME280;63436;26.334;50.194;2023-03-01T06:19:25;101978.03;;;29.54;16.61
72794;BME280;63436;26.334;50.194;2023-03-01T06:21:51;101970.51;;;29.99;16.35
72794;BME280;63436;26.334;50.194;2023-03-01T06:24:16;101972.32;;;29.43;16.70
72794;BME280;63436;26.334;50.194;2023-03-01T06:26:41;101972.65;;;29.60;16.59
72794;BME280;63436;26.334;50.194;2023-03-01T06:29:06;101974.48;;;29.60;16.34
72794;BME280;63436;26.334;50.194;2023-03-01T06:31:32;101977.65;;;27.76;17.07
72794;BME280;63436;26.334;50.194;2023-03-01T06:33:56;101972.57;;;29.99;15.65
72794;BME280;63436;26.334;50.194;2023-03-01T06:36:22;101972.53;;;31.15;14.59
72794;BME280;63436;26.334;50.194;2023-03-01T06:38:47;101968.79;;;31.69;13.92
72794;BME280;63436;26.334;50.194;2023-03-01T06:41:13;101964.77;;;30.73;14.04
72794;BME280;63436;26.334;50.194;2023-03-01T06:43:38;101963.54;;;30.71;13.70
72794;BME280;63436;26.334;50.194;2023-03-01T06:46:06;101965.68;;;28.56;14.69
72794;BME280;63436;26.334;50.194;2023-03-01T06:48:29;101958.79;;;29.91;13.52
72794;BME280;63436;26.334;50.194;2023-03-01T06:50:54;101961.05;;;31.22;13.00
72794;BME280;63436;26.334;50.194;2023-03-01T06:53:20;101962.16;;;29.57;14.20
72794;BME280;63436;26.334;50.194;2023-03-01T06:55:46;101961.35;;;31.22;13.20
72794;BME280;63436;26.334;50.194;2023-03-01T06:58:10;101962.05;;;30.89;14.00
72794;BME280;63436;26.334;50.194;2023-03-01T07:00:35;101956.16;;;29.63;14.00
72794;BME280;63436;26.334;50.194;2023-03-01T07:03:01;101961.62;;;29.35;13.91
72794;BME280;63436;26.334;50.194;2023-03-01T07:05:27;101964.90;;;31.16;13.42
72794;BME280;63436;26.334;50.194;2023-03-01T07:07:53;101964.18;;;30.79;13.47
72794;BME280;63436;26.334;50.194;2023-03-01T07:10:18;101965.49;;;29.69;14.75
72794;BME280;63436;26.334;50.194;2023-03-01T07:12:43;101965.15;;;29.83;14.46
72794;BME280;63436;26.334;50.194;2023-03-01T07:15:10;101958.13;;;29.67;13.75
72794;BME280;63436;26.334;50.194;2023-03-01T07:17:33;101963.19;;;30.09;13.30
72794;BME280;63436;26.334;50.194;2023-03-01T07:19:58;101964.69;;;30.64;13.63
72794;BME280;63436;26.334;50.194;2023-03-01T07:22:24;101957.54;;;31.42;13.91
72794;BME280;63436;26.334;50.194;2023-03-01T07:24:50;101949.20;;;31.90;13.26
72794;BME280;63436;26.334;50.194;2023-03-01T07:27:15;101953.28;;;30.70;13.97
72794;BME280;63436;26.334;50.194;2023-03-01T07:29:40;101953.65;;;28.83;15.77
72794;BME280;63436;26.334;50.194;2023-03-01T07:32:08;101952.98;;;30.09;15.24
72794;BME280;63436;26.334;50.194;2023-03-01T07:34:32;101954.25;;;29.19;15.88
72794;BME280;63436;26.334;50.194;2023-03-01T07:36:57;101948.80;;;29.04;16.17
72794;BME280;63436;26.334;50.194;2023-03-01T07:39:23;101944.80;;;29.98;15.50
72794;BME280;63436;26.334;50.194;2023-03-01T07:41:49;101933.74;;;31.15;15.06
72794;BME280;63436;26.334;50.194;2023-03-01T07:44:15;101935.99;;;31.11;15.24
72794;BME280;63436;26.334;50.194;2023-03-01T07:46:41;101943.46;;;29.84;15.43
72794;BME280;63436;26.334;50.194;2023-03-01T07:49:05;101944.45;;;28.28;16.66
72794;BME280;63436;26.334;50.194;2023-03-01T07:51:31;101939.49;;;30.01;16.03
72794;BME280;63436;26.334;50.194;2023-03-01T07:53:57;101933.71;;;29.89;16.28
72794;BME280;63436;26.334;50.194;2023-03-01T07:56:22;101930.10;;;30.16;15.87
72794;BME280;63436;26.334;50.194;2023-03-01T07:58:48;101927.49;;;28.42;16.42
72794;BME280;63436;26.334;50.194;2023-03-01T08:01:16;101924.73;;;29.04;15.64
72794;BME280;63436;26.334;50.194;2023-03-01T08:03:38;101925.19;;;29.52;15.31
72794;BME280;63436;26.334;50.194;2023-03-01T08:06:05;101925.46;;;30.49;15.14
72794;BME280;63436;26.334;50.194;2023-03-01T08:08:29;101927.75;;;30.72;14.03
72794;BME280;63436;26.334;50.194;2023-03-01T08:10:57;101927.09;;;30.31;14.58
72794;BME280;63436;26.334;50.194;2023-03-01T08:13:19;101922.61;;;30.22;14.83
72794;BME280;63436;26.334;50.194;2023-03-01T08:15:45;101917.90;;;29.08;15.91
72794;BME280;63436;26.334;50.194;2023-03-01T08:18:10;101914.30;;;29.10;15.85
72794;BME280;63436;26.334;50.194;2023-03-01T08:20:37;101907.92;;;30.73;14.37
72794;BME280;63436;26.334;50.194;2023-03-01T08:23:03;101902.75;;;29.94;14.93
72794;BME280;63436;26.334;50.194;2023-03-01T08:25:28;101897.91;;;31.09;14.88
72794;BME280;63436;26.334;50.194;2023-03-01T08:27:52;101892.41;;;29.64;14.94
72794;BME280;63436;26.334;50.194;2023-03-01T08:30:19;101883.06;;;31.31;14.49
72794;BME280;63436;26.334;50.194;2023-03-01T08:32:43;101882.50;;;31.98;14.52
72794;BME280;63436;26.334;50.194;2023-03-01T08:35:09;101872.23;;;29.95;15.18
72794;BME280;63436;26.334;50.194;2023-03-01T08:37:35;101871.70;;;30.13;15.61
72794;BME280;63436;26.334;50.194;2023-03-01T08:39:59;101865.30;;;29.55;16.12
72794;BME280;63436;26.334;50.194;2023-03-01T08:42:25;101856.71;;;29.87;15.56
72794;BME280;63436;26.334;50.194;2023-03-01T08:44:51;101853.39;;;31.63;14.58
72794;BME280;63436;26.334;50.194;2023-03-01T08:47:18;101844.11;;;29.66;14.33
72794;BME280;63436;26.334;50.194;2023-03-01T08:49:42;101846.51;;;31.80;14.13
72794;BME280;63436;26.334;50.194;2023-03-01T08:52:08;101849.36;;;31.07;14.71
72794;BME280;63436;26.334;50.194;2023-03-01T08:54:33;101838.91;;;31.12;14.02
72794;BME280;63436;26.334;50.194;2023-03-01T08:57:02;101836.39;;;30.16;15.01
72794;BME280;63436;26.334;50.194;2023-03-01T08:59:26;101827.30;;;30.11;14.86
72794;BME280;63436;26.334;50.194;2023-03-01T09:01:50;101825.68;;;30.42;13.91
72794;BME280;63436;26.334;50.194;2023-03-01T09:04:16;101823.22;;;30.27;14.39
72794;BME280;63436;26.334;50.194;2023-03-01T09:06:41;101825.11;;;31.01;14.17
72794;BME280;63436;26.334;50.194;2023-03-01T09:09:07;101816.44;;;30.26;14.70
72794;BME280;63436;26.334;50.194;2023-03-01T09:11:32;101808.40;;;30.14;14.98
72794;BME280;63436;26.334;50.194;2023-03-01T09:13:57;101799.57;;;28.90;15.55
72794;BME280;63436;26.334;50.194;2023-03-01T09:16:23;101799.42;;;30.88;14.55
72794;BME280;63436;26.334;50.194;2023-03-01T09:18:50;101793.65;;;31.63;13.50
72794;BME280;63436;26.334;50.194;2023-03-01T09:21:15;101792.97;;;31.06;12.74
72794;BME280;63436;26.334;50.194;2023-03-01T09:23:39;101790.04;;;31.34;13.38
72794;BME280;63436;26.334;50.194;2023-03-01T09:26:03;101784.38;;;29.34;15.00
72794;BME280;63436;26.334;50.194;2023-03-01T09:28:28;101779.07;;;29.78;15.27
72794;BME280;63436;26.334;50.194;2023-03-01T09:30:57;101776.97;;;30.62;14.66
72794;BME280;63436;26.334;50.194;2023-03-01T09:33:19;101771.58;;;31.77;14.20
72794;BME280;63436;26.334;50.194;2023-03-01T09:35:45;101769.08;;;31.03;14.22
72794;BME280;63436;26.334;50.194;2023-03-01T09:38:11;101775.37;;;30.51;14.69
72794;BME280;63436;26.334;50.194;2023-03-01T09:40:36;101769.89;;;30.20;13.85
72794;BME280;63436;26.334;50.194;2023-03-01T09:43:07;101763.32;;;31.79;13.69
72794;BME280;63436;26.334;50.194;2023-03-01T09:45:33;101764.62;;;30.58;14.50
72794;BME280;63436;26.334;50.194;2023-03-01T09:47:54;101759.51;;;31.03;13.93
72794;BME280;63436;26.334;50.194;2023-03-01T09:50:20;101757.94;;;30.13;14.48
72794;BME280;63436;26.334;50.194;2023-03-01T09:52:47;101749.72;;;30.25;14.14
72794;BME280;63436;26.334;50.194;2023-03-01T09:55:14;101749.71;;;31.26;12.75
72794;BME280;63436;26.334;50.194;2023-03-01T09:57:41;101742.93;;;29.10;14.26
72794;BME280;63436;26.334;50.194;2023-03-01T10:00:13;101739.73;;;30.78;13.17
72794;BME280;63436;26.334;50.194;2023-03-01T10:02:33;101739.58;;;30.65;13.98
72794;BME280;63436;26.334;50.194;2023-03-01T10:04:54;101740.69;;;31.54;13.43
72794;BME280;63436;26.334;50.194;2023-03-01T10:07:26;101739.92;;;30.51;13.87
72794;BME280;63436;26.334;50.194;2023-03-01T10:09:43;101735.89;;;29.76;14.00
72794;BME280;63436;26.334;50.194;2023-03-01T10:12:12;101729.88;;;29.65;14.00
72794;BME280;63436;26.334;50.194;2023-03-01T10:14:47;101727.07;;;30.36;13.89
72794;BME280;63436;26.334;50.194;2023-03-01T10:17:08;101727.81;;;30.97;13.31
72794;BME280;63436;26.334;50.194;2023-03-01T10:19:32;101732.37;;;30.37;13.80
72794;BME280;63436;26.334;50.194;2023-03-01T10:22:09;101725.37;;;28.00;15.78
72794;BME280;63436;26.334;50.194;2023-03-01T10:24:17;101723.50;;;29.16;15.54
72794;BME280;63436;26.334;50.194;2023-03-01T10:26:50;101721.97;;;28.79;15.89
72794;BME280;63436;26.334;50.194;2023-03-01T10:29:08;101719.42;;;27.39;17.35
72794;BME280;63436;26.334;50.194;2023-03-01T10:31:39;101719.41;;;27.85;17.31
72794;BME280;63436;26.334;50.194;2023-03-01T10:33:58;101713.15;;;28.34;17.24
72794;BME280;63436;26.334;50.194;2023-03-01T10:36:22;101708.76;;;28.92;16.71
72794;BME280;63436;26.334;50.194;2023-03-01T10:38:49;101706.66;;;30.01;15.80
72794;BME280;63436;26.334;50.194;2023-03-01T10:41:13;101698.79;;;28.78;16.72
72794;BME280;63436;26.334;50.194;2023-03-01T10:43:47;101692.75;;;30.20;15.23
72794;BME280;63436;26.334;50.194;2023-03-01T10:46:08;101693.29;;;29.77;15.77
72794;BME280;63436;26.334;50.194;2023-03-01T10:48:29;101687.48;;;30.35;14.43
72794;BME280;63436;26.334;50.194;2023-03-01T10:53:24;101676.16;;;30.42;14.53
72794;BME280;63436;26.334;50.194;2023-03-01T10:55:46;101669.66;;;31.91;14.40
72794;BME280;63436;26.334;50.194;2023-03-01T10:58:17;101668.08;;;32.12;14.43
72794;BME280;63436;26.334;50.194;2023-03-01T11:00:45;101671.75;;;29.42;16.31
72794;BME280;63436;26.334;50.194;2023-03-01T11:03:10;101662.87;;;31.25;15.70
72794;BME280;63436;26.334;50.194;2023-03-01T11:05:27;101662.11;;;29.28;17.42
72794;BME280;63436;26.334;50.194;2023-03-01T11:07:53;101648.25;;;31.29;15.69
72794;BME280;63436;26.334;50.194;2023-03-01T11:10:20;101641.05;;;30.67;13.98
72794;BME280;63436;26.334;50.194;2023-03-01T11:12:44;101641.59;;;30.67;13.00
72794;BME280;63436;26.334;50.194;2023-03-01T11:15:20;101640.95;;;28.45;14.31
72794;BME280;63436;26.334;50.194;2023-03-01T11:17:34;101638.12;;;30.76;12.82
72794;BME280;63436;26.334;50.194;2023-03-01T11:20:02;101634.71;;;30.21;12.86
72794;BME280;63436;26.334;50.194;2023-03-01T11:22:25;101642.92;;;29.93;13.75
72794;BME280;63436;26.334;50.194;2023-03-01T11:24:53;101635.20;;;29.61;13.61
72794;BME280;63436;26.334;50.194;2023-03-01T11:27:19;101626.13;;;30.70;13.47
72794;BME280;63436;26.334;50.194;2023-03-01T11:29:45;101624.02;;;29.12;13.52
72794;BME280;63436;26.334;50.194;2023-03-01T11:32:08;101618.85;;;30.42;13.19
72794;BME280;63436;26.334;50.194;2023-03-01T11:34:38;101624.57;;;29.86;13.16
72794;BME280;63436;26.334;50.194;2023-03-01T11:37:00;101622.94;;;30.02;13.01
72794;BME280;63436;26.334;50.194;2023-03-01T11:39:29;101626.22;;;29.53;12.90
72794;BME280;63436;26.334;50.194;2023-03-01T11:41:50;101626.06;;;29.09;13.16
72794;BME280;63436;26.334;50.194;2023-03-01T11:44:17;101628.45;;;28.79;12.97
72794;BME280;63436;26.334;50.194;2023-03-01T11:47:03;101624.71;;;30.43;12.10
72794;BME280;63436;26.334;50.194;2023-03-01T11:51:41;101619.12;;;30.46;12.14
72794;BME280;63436;26.334;50.194;2023-03-01T11:54:06;101623.66;;;28.18;13.07
72794;BME280;63436;26.334;50.194;2023-03-01T11:56:27;101626.01;;;28.44;13.51
72794;BME280;63436;26.334;50.194;2023-03-01T12:01:23;101632.19;;;29.06;13.06
72794;BME280;63436;26.334;50.194;2023-03-01T12:03:50;101633.55;;;29.61;12.88
72794;BME280;63436;26.334;50.194;2023-03-01T12:06:12;101634.79;;;29.28;13.09
72794;BME280;63436;26.334;50.194;2023-03-01T12:08:31;101637.82;;;29.75;12.51
72794;BME280;63436;26.334;50.194;2023-03-01T12:11:00;101634.96;;;30.49;11.88
72794;BME280;63436;26.334;50.194;2023-03-01T12:13:29;101645.04;;;29.70;12.22
72794;BME280;63436;26.334;50.194;2023-03-01T12:15:55;101646.13;;;30.38;11.68
72794;BME280;63436;26.334;50.194;2023-03-01T12:18:24;101644.71;;;29.17;12.48
72794;BME280;63436;26.334;50.194;2023-03-01T12:20:40;101650.37;;;29.37;12.92
72794;BME280;63436;26.334;50.194;2023-03-01T12:23:20;101652.65;;;30.05;12.44
72794;BME280;63436;26.334;50.194;2023-03-01T12:25:28;101653.38;;;28.32;13.49
72794;BME280;63436;26.334;50.194;2023-03-01T12:28:04;101653.59;;;28.37;12.80
72794;BME280;63436;26.334;50.194;2023-03-01T12:30:25;101658.46;;;29.13;12.51
72794;BME280;63436;26.334;50.194;2023-03-01T12:32:47;101661.66;;;29.12;12.68
72794;BME280;63436;26.334;50.194;2023-03-01T12:35:20;101663.04;;;28.06;12.81
72794;BME280;63436;26.334;50.194;2023-03-01T12:37:40;101664.28;;;29.77;11.95
72794;BME280;63436;26.334;50.194;2023-03-01T12:42:30;101661.17;;;28.80;12.53